MAPA DE AEROPUERTO

INFORMACIÓN METAR y TAF

METAR FOR LTAI
ADDS - METARS form results

(0547 UTC 23 October 2021)
Data provider http://aviationweather.gov/metar/data/
 
METAR text: LTAI 230520Z 35007KT CAVOK 17/05 Q1019 NOSIG RMK RWY18C 33005KT RWY36R 34006KT RWY18L 31005KT
Conditions at: LTAI (ANTALYA (CIV/MIL, TR) observed 0520 UTC 23 October 2021
Temperature: 17.0°C (63°F)
Dewpoint: 5.0°C (41°F) [RH = 45%]
Pressure (altimeter): 30.09 inches Hg (1019.0 mb)
Winds: from the N (350 degrees) at 8 MPH (7 knots; 3.6 m/s)
Visibility: 6 or more miles (10+ km)
Ceiling: ceiling and visibility are OK
Clouds: unknown
Weather: no significant weather observed at this time

METAR text: LTAI 230450Z 33007KT CAVOK 16/05 Q1019 NOSIG RMK RWY18C 32004KT RWY36R 31006KT RWY18L 31004KT
Conditions at: LTAI (ANTALYA (CIV/MIL, TR) observed 0450 UTC 23 October 2021
Temperature: 16.0°C (61°F)
Dewpoint: 5.0°C (41°F) [RH = 48%]
Pressure (altimeter): 30.09 inches Hg (1019.0 mb)
Winds: from the NNW (330 degrees) at 8 MPH (7 knots; 3.6 m/s)
Visibility: 6 or more miles (10+ km)
Ceiling: ceiling and visibility are OK
Clouds: unknown
Weather: no significant weather observed at this time

Forecast for: LTAI (ANTALYA (CIV/MIL, TR)
Text: TAF LTAI 230440Z 2306/2406 34006KT CAVOK
Forecast period: 0600 to 0700 UTC 23 October 2021
Forecast type: FROM: standard forecast or significant change
Winds: from the NNW (340 degrees) at 7 MPH (6 knots; 3.1 m/s)
Visibility: 6 or more miles (10+ km)
Ceiling: unknown
Clouds: missing
Weather: NSW  (no significant weather)
Text: BECMG 2307/2311 18010KT FEW030
Forecast period: 0700 to 1500 UTC 23 October 2021
Forecast type: BECOMING: Conditions expected to become as follows by 1100 UTC 23 October 2021
Winds: from the S (180 degrees) at 12 MPH (10 knots; 5.1 m/s)
Visibility: 6 or more miles (10+ km)
Ceiling: at least 12,000 feet AGL
Clouds: few clouds at 3000 feet AGL
Weather: NSW  (no significant weather)
Text: BECMG 2315/2318 34006KT CAVOK
Forecast period: 1500 UTC 23 October 2021 to 0600 UTC 24 October 2021
Forecast type: BECOMING: Conditions expected to become as follows by 1800 UTC 23 October 2021
Winds: from the NNW (340 degrees) at 7 MPH (6 knots; 3.1 m/s)
Visibility: 6 or more miles (10+ km)
Ceiling: unknown
Clouds: missing
Weather: NSW  (no significant weather)